createdAt,value
2019-05-26T00:00:44.463Z,14.10
2019-05-26T00:01:44.897Z,14.03
2019-05-26T00:02:45.346Z,14.04
2019-05-26T00:03:45.761Z,13.99
2019-05-26T00:04:46.189Z,13.96
2019-05-26T00:05:46.619Z,13.96
2019-05-26T00:06:47.050Z,13.99
2019-05-26T00:07:47.493Z,14.12
2019-05-26T00:08:47.930Z,14.10
2019-05-26T00:09:48.348Z,14.03
2019-05-26T00:10:48.769Z,14.07
2019-05-26T00:11:49.205Z,14.08
2019-05-26T00:12:49.649Z,14.10
2019-05-26T00:13:50.083Z,14.00
2019-05-26T00:14:50.499Z,14.03
2019-05-26T00:15:50.936Z,14.03
2019-05-26T00:16:51.367Z,13.96
2019-05-26T00:17:51.811Z,13.90
2019-05-26T00:18:52.272Z,13.87
2019-05-26T00:19:52.650Z,13.89
2019-05-26T00:20:53.086Z,13.90
2019-05-26T00:21:53.511Z,13.89
2019-05-26T00:22:53.963Z,13.78
2019-05-26T00:23:56.310Z,13.81
2019-05-26T00:24:54.812Z,13.86
2019-05-26T00:25:55.254Z,13.75
2019-05-26T00:26:55.675Z,13.74
2019-05-26T00:27:56.115Z,13.72
2019-05-26T00:28:56.529Z,13.70
2019-05-26T00:29:56.968Z,13.62
2019-05-26T00:30:57.401Z,13.63
2019-05-26T00:31:57.883Z,13.60
2019-05-26T00:32:58.260Z,13.54
2019-05-26T00:33:58.686Z,13.65
2019-05-26T00:34:59.106Z,13.67
2019-05-26T00:35:59.548Z,13.53
2019-05-26T00:36:59.994Z,13.57
2019-05-26T00:38:00.423Z,13.59
2019-05-26T00:39:00.862Z,13.57
2019-05-26T00:40:01.263Z,13.56
2019-05-26T00:41:01.703Z,13.56
2019-05-26T00:42:02.133Z,13.53
2019-05-26T00:43:02.613Z,13.49
2019-05-26T00:44:02.988Z,13.47
2019-05-26T00:45:03.427Z,13.56
2019-05-26T00:46:03.851Z,13.53
2019-05-26T00:47:04.277Z,13.50
2019-05-26T00:48:04.707Z,13.54
2019-05-26T00:49:05.140Z,13.50
2019-05-26T00:50:05.568Z,13.39
2019-05-26T00:51:06.001Z,13.54
2019-05-26T00:52:06.427Z,13.63
2019-05-26T00:53:06.877Z,13.62
2019-05-26T00:54:07.285Z,13.63
2019-05-26T00:55:07.723Z,13.62
2019-05-26T00:56:08.153Z,13.62
2019-05-26T00:57:08.579Z,13.56
2019-05-26T00:58:09.013Z,13.50
2019-05-26T00:59:09.440Z,13.60
2019-05-26T01:00:09.868Z,13.50
2019-05-26T01:01:10.301Z,13.53
2019-05-26T01:02:10.725Z,13.41
2019-05-26T01:03:11.164Z,13.41
2019-05-26T01:04:11.588Z,13.42
2019-05-26T01:05:12.015Z,13.37
2019-05-26T01:06:12.450Z,13.42
2019-05-26T01:07:12.881Z,13.35
2019-05-26T01:08:13.313Z,13.39
2019-05-26T01:09:13.740Z,13.35
2019-05-26T01:10:14.183Z,13.31
2019-05-26T01:11:14.610Z,13.33
2019-05-26T01:12:15.031Z,13.38
2019-05-26T01:13:15.476Z,13.33
2019-05-26T01:14:15.898Z,13.25
2019-05-26T01:15:16.346Z,13.31
2019-05-26T01:16:16.756Z,13.35
2019-05-26T01:17:17.183Z,13.30
2019-05-26T01:18:17.612Z,13.35
2019-05-26T01:19:18.066Z,13.23
2019-05-26T01:20:18.475Z,13.37
2019-05-26T01:21:18.903Z,13.20
2019-05-26T01:22:19.338Z,13.25
2019-05-26T01:23:19.758Z,13.37
2019-05-26T01:24:20.195Z,13.20
2019-05-26T01:25:20.629Z,13.20
2019-05-26T01:26:21.046Z,13.27
2019-05-26T01:27:21.478Z,13.27
2019-05-26T01:28:21.925Z,13.15
2019-05-26T01:29:22.376Z,13.15
2019-05-26T01:30:22.774Z,13.13
2019-05-26T01:31:23.205Z,13.15
2019-05-26T01:32:23.623Z,13.15
2019-05-26T01:33:24.059Z,13.15
2019-05-26T01:34:24.491Z,13.15
2019-05-26T01:35:24.914Z,13.11
2019-05-26T01:36:25.343Z,13.16
2019-05-26T01:37:25.777Z,13.01
2019-05-26T01:38:26.210Z,13.12
2019-05-26T01:39:26.646Z,13.00
2019-05-26T01:40:27.059Z,12.95
2019-05-26T01:41:27.503Z,12.95
2019-05-26T01:42:27.943Z,12.87
2019-05-26T01:43:28.356Z,12.87
2019-05-26T01:44:28.791Z,12.87
2019-05-26T01:45:29.221Z,12.80
2019-05-26T01:46:29.656Z,12.82
2019-05-26T01:47:30.084Z,12.79
2019-05-26T01:48:30.507Z,12.85
2019-05-26T01:49:30.930Z,12.76
2019-05-26T01:50:31.371Z,12.79
2019-05-26T01:51:31.787Z,12.72
2019-05-26T01:52:32.220Z,12.73
2019-05-26T01:53:32.659Z,12.70
2019-05-26T01:54:33.093Z,12.78
2019-05-26T01:55:33.509Z,12.68
2019-05-26T01:56:33.950Z,12.75
2019-05-26T01:57:34.372Z,12.80
2019-05-26T01:58:34.802Z,12.68
2019-05-26T01:59:35.231Z,12.72
2019-05-26T02:00:35.665Z,12.67
2019-05-26T02:01:36.094Z,12.75
2019-05-26T02:02:36.527Z,12.70
2019-05-26T02:03:36.950Z,12.62
2019-05-26T02:04:37.387Z,12.58
2019-05-26T02:05:37.816Z,12.64
2019-05-26T02:06:38.262Z,12.62
2019-05-26T02:07:38.683Z,12.60
2019-05-26T02:08:39.870Z,12.64
2019-05-26T02:09:39.530Z,12.61
2019-05-26T02:10:39.969Z,12.60
2019-05-26T02:11:40.397Z,12.57
2019-05-26T02:12:40.834Z,12.62
2019-05-26T02:13:41.241Z,12.58
2019-05-26T02:14:41.686Z,12.54
2019-05-26T02:15:42.110Z,12.61
2019-05-26T02:16:42.551Z,12.62
2019-05-26T02:17:42.959Z,12.50
2019-05-26T02:18:43.391Z,12.62
2019-05-26T02:19:43.826Z,12.49
2019-05-26T02:20:44.253Z,12.54
2019-05-26T02:21:44.683Z,12.54
2019-05-26T02:22:45.115Z,12.47
2019-05-26T02:23:45.557Z,12.53
2019-05-26T02:24:45.985Z,12.42
2019-05-26T02:25:46.396Z,12.49
2019-05-26T02:26:46.834Z,12.45
2019-05-26T02:27:47.253Z,12.47
2019-05-26T02:28:47.692Z,12.45
2019-05-26T02:29:48.128Z,12.37
2019-05-26T02:30:48.557Z,12.37
2019-05-26T02:31:48.984Z,12.36
2019-05-26T02:32:49.411Z,12.39
2019-05-26T02:33:49.929Z,12.37
2019-05-26T02:34:50.241Z,12.37
2019-05-26T02:35:50.757Z,12.39
2019-05-26T02:36:51.135Z,12.36
2019-05-26T02:37:51.555Z,12.36
2019-05-26T02:39:02.183Z,12.36
2019-05-26T02:39:52.390Z,12.29
2019-05-26T02:40:52.847Z,12.40
2019-05-26T02:41:53.259Z,12.36
2019-05-26T02:42:53.680Z,12.35
2019-05-26T02:43:54.133Z,12.27
2019-05-26T02:44:59.105Z,12.37
2019-05-26T02:45:54.973Z,12.24
2019-05-26T02:46:55.399Z,12.24
2019-05-26T02:47:55.822Z,12.18
2019-05-26T02:48:56.267Z,12.18
2019-05-26T02:49:56.684Z,12.17
2019-05-26T02:50:57.124Z,12.17
2019-05-26T02:51:57.542Z,12.15
2019-05-26T02:52:57.969Z,12.22
2019-05-26T02:53:58.402Z,12.12
2019-05-26T02:54:58.829Z,12.12
2019-05-26T02:55:59.257Z,12.18
2019-05-26T02:56:59.682Z,12.20
2019-05-26T02:58:00.132Z,12.18
2019-05-26T02:59:00.565Z,12.13
2019-05-26T03:00:00.981Z,12.07
2019-05-26T03:01:01.404Z,12.12
2019-05-26T03:02:04.284Z,12.12
2019-05-26T03:03:02.267Z,12.15
2019-05-26T03:04:02.692Z,12.07
2019-05-26T03:05:03.120Z,12.24
2019-05-26T03:06:03.558Z,12.20
2019-05-26T03:07:03.993Z,12.17
2019-05-26T03:08:04.405Z,12.18
2019-05-26T03:09:21.202Z,12.24
2019-05-26T03:10:05.279Z,12.15
2019-05-26T03:11:05.705Z,12.18
2019-05-26T03:12:06.124Z,12.09
2019-05-26T03:13:06.546Z,12.09
2019-05-26T03:14:06.967Z,12.12
2019-05-26T03:15:07.418Z,12.06
2019-05-26T03:16:07.829Z,11.97
2019-05-26T03:17:08.258Z,12.04
2019-05-26T03:18:08.684Z,12.02
2019-05-26T03:19:09.118Z,11.84
2019-05-26T03:20:09.550Z,11.83
2019-05-26T03:21:09.991Z,11.95
2019-05-26T03:22:10.395Z,11.90
2019-05-26T03:23:10.877Z,11.87
2019-05-26T03:24:11.260Z,11.87
2019-05-26T03:25:11.688Z,11.95
2019-05-26T03:26:12.117Z,11.90
2019-05-26T03:27:12.539Z,11.84
2019-05-26T03:28:12.985Z,11.94
2019-05-26T03:29:13.400Z,11.95
2019-05-26T03:30:13.848Z,11.84
2019-05-26T03:31:14.274Z,11.84
2019-05-26T03:32:14.702Z,11.86
2019-05-26T03:33:15.201Z,12.03
2019-05-26T03:34:15.566Z,11.97
2019-05-26T03:35:15.983Z,12.02
2019-05-26T03:36:16.415Z,11.95
2019-05-26T03:37:16.832Z,12.03
2019-05-26T03:38:17.260Z,12.09
2019-05-26T03:39:17.706Z,12.12
2019-05-26T03:40:18.137Z,12.02
2019-05-26T03:41:18.557Z,12.12
2019-05-26T03:42:18.980Z,12.09
2019-05-26T03:43:19.404Z,12.15
2019-05-26T03:44:19.830Z,12.02
2019-05-26T03:45:20.307Z,11.97
2019-05-26T03:46:20.724Z,11.95
2019-05-26T03:47:21.120Z,12.09
2019-05-26T03:48:21.554Z,12.07
2019-05-26T03:49:21.980Z,11.95
2019-05-26T03:50:22.408Z,12.04
2019-05-26T03:51:22.853Z,12.07
2019-05-26T03:52:23.272Z,11.97
2019-05-26T03:53:23.701Z,12.00
2019-05-26T03:54:24.128Z,12.06
2019-05-26T03:55:24.551Z,12.06
2019-05-26T03:56:24.972Z,12.00
2019-05-26T03:57:25.413Z,12.06
2019-05-26T03:58:25.829Z,12.10
2019-05-26T03:59:26.289Z,12.13
2019-05-26T04:00:26.705Z,12.18
2019-05-26T04:01:27.148Z,12.21
2019-05-26T04:02:27.550Z,12.20
2019-05-26T04:03:27.982Z,12.17
2019-05-26T04:04:28.413Z,12.20
2019-05-26T04:05:28.834Z,12.24
2019-05-26T04:06:29.278Z,12.32
2019-05-26T04:07:29.696Z,12.27
2019-05-26T04:08:30.116Z,12.28
2019-05-26T04:09:30.552Z,12.35
2019-05-26T04:10:30.986Z,12.31
2019-05-26T04:11:31.415Z,12.28
2019-05-26T04:12:31.839Z,12.39
2019-05-26T04:13:32.267Z,12.28
2019-05-26T04:14:32.698Z,12.31
2019-05-26T04:15:33.135Z,12.29
2019-05-26T04:16:33.570Z,12.20
2019-05-26T04:17:34.007Z,12.32
2019-05-26T04:18:34.425Z,12.39
2019-05-26T04:19:34.848Z,12.45
2019-05-26T04:20:35.269Z,12.50
2019-05-26T04:21:35.715Z,12.57
2019-05-26T04:22:36.140Z,12.60
2019-05-26T04:23:36.562Z,12.60
2019-05-26T04:24:36.982Z,12.64
2019-05-26T04:25:37.421Z,12.58
2019-05-26T04:26:37.844Z,12.73
2019-05-26T04:27:38.281Z,12.80
2019-05-26T04:28:38.698Z,12.90
2019-05-26T04:29:39.131Z,12.90
2019-05-26T04:30:39.562Z,12.93
2019-05-26T04:31:39.991Z,12.83
2019-05-26T04:32:40.416Z,12.78
2019-05-26T04:33:40.858Z,12.87
2019-05-26T04:34:41.280Z,12.87
2019-05-26T04:35:41.728Z,12.90
2019-05-26T04:36:42.152Z,12.87
2019-05-26T04:37:42.565Z,12.87
2019-05-26T04:38:42.992Z,12.95
2019-05-26T04:39:43.428Z,13.01
2019-05-26T04:40:43.867Z,12.86
2019-05-26T04:41:44.395Z,13.03
2019-05-26T04:42:44.717Z,13.19
2019-05-26T04:43:45.143Z,13.18
2019-05-26T04:44:45.593Z,13.12
2019-05-26T04:45:46.005Z,13.16
2019-05-26T04:46:46.433Z,13.13
2019-05-26T04:47:46.888Z,13.01
2019-05-26T04:48:47.304Z,13.16
2019-05-26T04:49:47.741Z,13.12
2019-05-26T04:50:48.154Z,13.05
2019-05-26T04:51:48.576Z,12.95
2019-05-26T04:53:05.491Z,12.95
2019-05-26T04:53:49.450Z,13.01
2019-05-26T04:54:49.875Z,13.09
2019-05-26T04:55:50.316Z,13.05
2019-05-26T04:56:50.730Z,13.27
2019-05-26T04:57:51.157Z,13.35
2019-05-26T04:58:51.594Z,13.33
2019-05-26T04:59:52.005Z,13.16
2019-05-26T05:00:52.448Z,13.41
2019-05-26T05:01:52.942Z,13.37
2019-05-26T05:02:53.307Z,13.38
2019-05-26T05:03:53.730Z,13.41
2019-05-26T05:04:54.173Z,13.25
2019-05-26T05:05:54.611Z,13.31
2019-05-26T05:06:55.027Z,13.33
2019-05-26T05:07:55.454Z,13.08
2019-05-26T05:08:55.887Z,13.33
2019-05-26T05:09:56.323Z,13.20
2019-05-26T05:10:56.755Z,13.20
2019-05-26T05:11:57.173Z,13.37
2019-05-26T05:12:57.610Z,13.37
2019-05-26T05:13:58.039Z,13.38
2019-05-26T05:14:58.478Z,13.30
2019-05-26T05:15:58.915Z,13.42
2019-05-26T05:16:59.336Z,13.54
2019-05-26T05:17:59.761Z,13.60
2019-05-26T05:19:00.194Z,13.65
2019-05-26T05:20:00.618Z,13.72
2019-05-26T05:21:01.073Z,13.86
2019-05-26T05:22:01.482Z,13.74
2019-05-26T05:23:01.911Z,13.62
2019-05-26T05:24:02.348Z,13.68
2019-05-26T05:25:02.777Z,13.52
2019-05-26T05:26:03.198Z,13.52
2019-05-26T05:27:03.639Z,13.39
2019-05-26T05:28:04.068Z,13.47
2019-05-26T05:29:04.533Z,13.67
2019-05-26T05:30:04.944Z,13.92
2019-05-26T05:31:05.361Z,13.95
2019-05-26T05:32:05.792Z,14.07
2019-05-26T05:33:06.251Z,14.23
2019-05-26T05:34:06.690Z,14.17
2019-05-26T05:35:07.088Z,14.29
2019-05-26T05:36:07.518Z,14.36
2019-05-26T05:37:07.954Z,14.48
2019-05-26T05:38:08.388Z,14.40
2019-05-26T05:39:08.817Z,14.40
2019-05-26T05:40:09.257Z,14.53
2019-05-26T05:41:09.712Z,14.68
2019-05-26T05:42:10.132Z,14.07
2019-05-26T05:43:10.541Z,14.07
2019-05-26T05:44:10.985Z,14.35
2019-05-26T05:45:11.415Z,14.22
2019-05-26T05:46:11.844Z,14.28
2019-05-26T05:47:12.271Z,14.54
2019-05-26T05:48:12.716Z,14.79
2019-05-26T05:49:13.148Z,15.07
2019-05-26T05:50:13.566Z,15.00
2019-05-26T05:51:14.018Z,15.17
2019-05-26T05:52:14.444Z,14.81
2019-05-26T05:53:14.884Z,15.19
2019-05-26T05:54:15.307Z,15.39
2019-05-26T05:55:15.743Z,15.37
2019-05-26T05:56:17.160Z,15.36
2019-05-26T05:57:16.634Z,15.47
2019-05-26T05:58:17.061Z,15.59
2019-05-26T05:59:17.487Z,15.40
2019-05-26T06:00:17.907Z,15.31
2019-05-26T06:01:18.354Z,15.58
2019-05-26T06:02:18.788Z,15.52
2019-05-26T06:03:19.215Z,15.61
2019-05-26T06:04:19.651Z,15.51
2019-05-26T06:05:20.090Z,15.61
2019-05-26T06:06:20.523Z,15.62
2019-05-26T06:07:20.955Z,15.82
2019-05-26T06:08:21.384Z,15.95
2019-05-26T06:09:21.817Z,16.21
2019-05-26T06:10:22.273Z,16.21
2019-05-26T06:11:22.697Z,16.00
2019-05-26T06:12:23.191Z,16.21
2019-05-26T06:13:23.559Z,15.92
2019-05-26T06:14:23.997Z,16.01
2019-05-26T06:15:24.439Z,16.47
2019-05-26T06:16:24.909Z,16.81
2019-05-26T06:17:25.314Z,17.04
2019-05-26T06:18:25.751Z,17.36
2019-05-26T06:19:26.178Z,17.76
2019-05-26T06:20:26.614Z,18.10
2019-05-26T06:21:27.047Z,18.47
2019-05-26T06:22:27.491Z,18.41
2019-05-26T06:23:27.933Z,18.19
2019-05-26T06:24:28.363Z,18.03
2019-05-26T06:25:28.813Z,18.10
2019-05-26T06:26:29.249Z,17.89
2019-05-26T06:27:29.687Z,17.78
2019-05-26T06:28:30.126Z,18.13
2019-05-26T06:29:30.583Z,18.63
2019-05-26T06:30:30.987Z,18.86
2019-05-26T06:31:31.437Z,19.00
2019-05-26T06:32:31.868Z,18.90
2019-05-26T06:33:32.312Z,17.63
2019-05-26T06:34:32.767Z,18.03
2019-05-26T06:35:33.278Z,18.71
2019-05-26T06:36:33.645Z,19.29
2019-05-26T06:37:34.066Z,19.29
2019-05-26T06:38:34.515Z,18.68
2019-05-26T06:39:34.971Z,19.12
2019-05-26T06:40:35.397Z,19.26
2019-05-26T06:41:35.838Z,19.37
2019-05-26T06:42:36.291Z,19.63
2019-05-26T06:43:36.722Z,19.63
2019-05-26T06:44:52.465Z,19.62
2019-05-26T06:45:37.589Z,19.56
2019-05-26T06:46:38.037Z,19.56
2019-05-26T06:47:38.495Z,19.82
2019-05-26T06:48:38.932Z,20.03
2019-05-26T06:49:39.361Z,20.13
2019-05-26T06:50:39.820Z,19.82
2019-05-26T06:51:40.246Z,19.86
2019-05-26T06:52:40.695Z,20.21
2019-05-26T06:53:41.130Z,20.50
2019-05-26T06:54:41.589Z,20.26
2019-05-26T06:55:42.010Z,20.88
2019-05-26T06:56:42.486Z,21.22
2019-05-26T06:57:42.908Z,21.61
2019-05-26T06:58:43.353Z,21.24
2019-05-26T06:59:43.870Z,20.81
2019-05-26T07:00:44.248Z,20.99
2019-05-26T07:01:44.725Z,20.43
2019-05-26T07:02:45.136Z,21.05
2019-05-26T07:03:45.571Z,21.17
2019-05-26T07:04:46.019Z,21.25
2019-05-26T07:05:46.469Z,21.40
2019-05-26T07:06:46.904Z,21.43
2019-05-26T07:07:47.371Z,21.25
2019-05-26T07:08:47.820Z,20.96
2019-05-26T07:09:48.238Z,20.97
2019-05-26T07:10:48.683Z,20.81
2019-05-26T07:11:55.841Z,20.90
2019-05-26T07:12:49.587Z,19.94
2019-05-26T07:13:50.021Z,20.39
2019-05-26T07:14:50.473Z,19.70
2019-05-26T07:15:50.924Z,20.36
2019-05-26T07:16:51.361Z,20.55
2019-05-26T07:17:51.868Z,20.58
2019-05-26T07:18:52.249Z,20.58
2019-05-26T07:19:52.694Z,21.00
2019-05-26T07:20:53.138Z,21.21
2019-05-26T07:21:53.583Z,21.75
2019-05-26T07:22:54.063Z,21.60
2019-05-26T07:23:54.473Z,21.61
2019-05-26T07:24:54.963Z,22.07
2019-05-26T07:25:55.369Z,21.48
2019-05-26T07:26:55.840Z,21.95
2019-05-26T07:27:56.278Z,21.82
2019-05-26T07:28:56.726Z,22.38
2019-05-26T07:29:57.166Z,21.32
2019-05-26T07:30:57.605Z,22.28
2019-05-26T07:31:58.057Z,22.53
2019-05-26T07:32:58.519Z,21.98
2019-05-26T07:33:58.968Z,21.96
2019-05-26T07:34:59.433Z,22.06
2019-05-26T07:35:59.854Z,22.14
2019-05-26T07:37:00.318Z,22.51
2019-05-26T07:38:00.760Z,22.43
2019-05-26T07:39:01.202Z,22.44
2019-05-26T07:40:01.702Z,21.83
2019-05-26T07:41:02.106Z,21.89
2019-05-26T07:42:10.213Z,21.92
2019-05-26T07:43:03.005Z,21.35
2019-05-26T07:44:03.456Z,20.66
2019-05-26T07:45:03.886Z,20.55
2019-05-26T07:46:04.344Z,20.13
2019-05-26T07:47:04.791Z,20.43
2019-05-26T07:48:05.447Z,21.09
2019-05-26T07:49:05.917Z,21.17
2019-05-26T07:50:06.783Z,21.29
2019-05-26T07:51:07.646Z,21.42
2019-05-26T07:52:07.030Z,21.20
2019-05-26T07:53:07.483Z,21.30
2019-05-26T07:54:24.311Z,21.37
2019-05-26T07:55:08.370Z,21.88
2019-05-26T07:57:42.285Z,22.57
2019-05-26T07:58:42.521Z,22.75
2019-05-26T08:00:37.031Z,23.09
2019-05-26T08:01:37.441Z,22.69
2019-05-26T08:03:32.035Z,21.61
2019-05-26T08:04:32.494Z,21.52
2019-05-26T08:06:27.216Z,21.42
2019-05-26T08:07:27.548Z,20.25
2019-05-26T08:09:22.185Z,20.97
2019-05-26T08:10:22.616Z,20.80
2019-05-26T08:12:25.755Z,21.61
2019-05-26T08:13:17.665Z,22.23
2019-05-26T08:15:12.284Z,22.29
2019-05-26T08:16:12.728Z,21.95
2019-05-26T08:18:07.317Z,22.13
2019-05-26T08:19:07.783Z,22.38
2019-05-26T08:20:08.223Z,21.30
2019-05-26T08:21:08.663Z,20.69
2019-05-26T08:22:09.141Z,20.81
2019-05-26T08:23:09.608Z,21.24
2019-05-26T08:24:10.022Z,21.17
2019-05-26T08:25:10.481Z,20.52
2019-05-26T08:26:10.916Z,21.20
2019-05-26T08:27:11.357Z,21.21
2019-05-26T08:28:11.810Z,21.43
2019-05-26T08:29:12.257Z,20.44
2019-05-26T08:30:12.708Z,20.92
2019-05-26T08:31:13.529Z,20.99
2019-05-26T08:32:15.139Z,21.37
2019-05-26T08:33:14.049Z,21.14
2019-05-26T08:34:14.499Z,21.72
2019-05-26T08:35:14.958Z,22.11
2019-05-26T08:36:15.398Z,21.73
2019-05-26T08:37:15.839Z,21.80
2019-05-26T08:38:16.292Z,21.40
2019-05-26T08:39:16.743Z,21.80
2019-05-26T08:40:17.188Z,22.17
2019-05-26T08:41:17.647Z,21.58
2019-05-26T08:42:26.919Z,22.36
2019-05-26T08:43:18.535Z,22.80
2019-05-26T08:44:18.991Z,23.21
2019-05-26T08:45:21.715Z,23.39
2019-05-26T08:46:19.885Z,23.61
2019-05-26T08:47:20.343Z,23.54
2019-05-26T08:48:20.780Z,23.40
2019-05-26T08:49:21.238Z,23.59
2019-05-26T08:50:21.685Z,23.17
2019-05-26T08:51:22.156Z,23.51
2019-05-26T08:52:22.589Z,23.68
2019-05-26T08:53:23.031Z,23.44
2019-05-26T08:54:23.486Z,23.43
2019-05-26T08:55:23.940Z,23.58
2019-05-26T08:56:24.387Z,23.50
2019-05-26T08:57:24.838Z,23.47
2019-05-26T08:58:25.306Z,23.09
2019-05-26T08:59:25.742Z,23.61
2019-05-26T09:00:26.182Z,23.93
2019-05-26T09:01:26.638Z,23.88
2019-05-26T09:02:27.086Z,24.17
2019-05-26T09:03:27.538Z,23.13
2019-05-26T09:04:27.989Z,23.98
2019-05-26T09:05:28.437Z,24.86
2019-05-26T09:06:28.889Z,25.14
2019-05-26T09:07:29.340Z,25.51
2019-05-26T09:08:29.799Z,25.43
2019-05-26T09:09:30.252Z,25.75
2019-05-26T09:10:30.701Z,26.02
2019-05-26T09:11:31.158Z,25.68
2019-05-26T09:12:31.601Z,25.51
2019-05-26T09:13:32.065Z,25.41
2019-05-26T09:14:32.512Z,24.55
2019-05-26T09:15:32.956Z,25.13
2019-05-26T09:16:33.414Z,25.40
2019-05-26T09:17:33.866Z,25.63
2019-05-26T09:18:34.367Z,25.81
2019-05-26T09:19:34.784Z,25.10
2019-05-26T09:20:35.229Z,25.47
2019-05-26T09:21:35.690Z,24.73
2019-05-26T09:22:36.127Z,24.57
2019-05-26T09:23:36.589Z,24.48
2019-05-26T09:24:37.046Z,25.62
2019-05-26T09:25:37.527Z,24.80
2019-05-26T09:26:37.953Z,25.23
2019-05-26T09:27:38.408Z,25.48
2019-05-26T09:28:38.870Z,25.40
2019-05-26T09:29:39.335Z,25.72
2019-05-26T09:30:39.806Z,26.00
2019-05-26T09:31:40.230Z,26.53
2019-05-26T09:32:40.694Z,26.55
2019-05-26T09:33:41.149Z,26.51
2019-05-26T09:34:41.625Z,26.47
2019-05-26T09:35:42.058Z,27.03
2019-05-26T09:36:42.517Z,26.45
2019-05-26T09:37:42.983Z,25.99
2019-05-26T09:38:43.437Z,24.43
2019-05-26T09:39:43.878Z,24.66
2019-05-26T09:40:44.341Z,25.77
2019-05-26T09:41:44.801Z,25.93
2019-05-26T09:42:45.249Z,25.83
2019-05-26T09:43:45.708Z,26.02
2019-05-26T09:44:46.170Z,25.35
2019-05-26T09:45:46.633Z,24.86
2019-05-26T09:46:47.102Z,25.70
2019-05-26T09:47:47.547Z,25.54
2019-05-26T09:48:48.024Z,25.81
2019-05-26T09:49:48.462Z,25.81
2019-05-26T09:50:48.912Z,24.99
2019-05-26T09:51:49.364Z,25.70
2019-05-26T09:52:49.841Z,25.69
2019-05-26T09:54:01.210Z,25.59
2019-05-26T09:54:50.741Z,24.88
2019-05-26T09:55:51.193Z,24.68
2019-05-26T09:56:51.649Z,24.47
2019-05-26T09:57:52.100Z,23.91
2019-05-26T09:58:52.556Z,24.24
2019-05-26T09:59:53.014Z,23.84
2019-05-26T10:00:53.466Z,24.11
2019-05-26T10:01:53.934Z,22.99
2019-05-26T10:02:54.370Z,22.38
2019-05-26T10:03:54.822Z,23.37
2019-05-26T10:04:55.312Z,23.65
2019-05-26T10:05:55.719Z,22.51
2019-05-26T10:06:56.177Z,23.41
2019-05-26T10:07:56.635Z,23.84
2019-05-26T10:08:57.079Z,24.16
2019-05-26T10:09:57.578Z,23.05
2019-05-26T10:10:57.985Z,23.87
2019-05-26T10:11:58.442Z,23.28
2019-05-26T10:12:58.902Z,24.65
2019-05-26T10:13:59.343Z,24.91
2019-05-26T10:14:59.800Z,25.35
2019-05-26T10:16:00.261Z,25.18
2019-05-26T10:17:00.709Z,24.88
2019-05-26T10:18:01.164Z,24.48
2019-05-26T10:19:01.625Z,24.20
2019-05-26T10:20:02.074Z,24.11
2019-05-26T10:21:02.522Z,24.45
2019-05-26T10:22:03.019Z,23.10
2019-05-26T10:23:03.429Z,23.73
2019-05-26T10:24:03.879Z,24.14
2019-05-26T10:25:04.330Z,24.60
2019-05-26T10:26:04.790Z,24.38
2019-05-26T10:27:05.227Z,24.60
2019-05-26T10:28:05.675Z,24.78
2019-05-26T10:29:06.129Z,25.11
2019-05-26T10:30:06.590Z,25.53
2019-05-26T10:31:07.032Z,24.51
2019-05-26T10:32:07.488Z,23.95
2019-05-26T10:33:07.939Z,24.13
2019-05-26T10:34:08.393Z,24.30
2019-05-26T10:35:08.843Z,24.02
2019-05-26T10:36:09.295Z,22.65
2019-05-26T10:37:09.750Z,22.60
2019-05-26T10:38:10.188Z,23.18
2019-05-26T10:39:10.646Z,22.99
2019-05-26T10:40:11.107Z,23.27
2019-05-26T10:41:11.554Z,23.02
2019-05-26T10:42:11.998Z,23.87
2019-05-26T10:43:12.453Z,24.08
2019-05-26T10:44:12.896Z,24.18
2019-05-26T10:45:13.345Z,23.74
2019-05-26T10:46:13.798Z,23.41
2019-05-26T10:47:14.247Z,23.28
2019-05-26T10:48:14.718Z,22.98
2019-05-26T10:49:15.150Z,23.05
2019-05-26T10:50:15.583Z,23.24
2019-05-26T10:51:16.095Z,22.66
2019-05-26T10:52:16.486Z,23.00
2019-05-26T10:53:16.944Z,23.76
2019-05-26T10:54:17.382Z,22.85
2019-05-26T10:55:17.829Z,22.91
2019-05-26T10:56:18.290Z,23.74
2019-05-26T10:57:18.727Z,23.91
2019-05-26T10:58:19.191Z,24.24
2019-05-26T10:59:19.635Z,24.23
2019-05-26T11:00:20.070Z,24.48
2019-05-26T11:01:20.540Z,24.16
2019-05-26T11:02:20.975Z,24.14
2019-05-26T11:03:21.423Z,24.43
2019-05-26T11:04:21.875Z,24.24
2019-05-26T11:05:22.347Z,24.24
2019-05-26T11:06:22.767Z,24.89
2019-05-26T11:07:26.658Z,24.76
2019-05-26T11:08:23.688Z,24.96
2019-05-26T11:09:24.112Z,23.92
2019-05-26T11:10:24.578Z,24.16
2019-05-26T11:11:25.016Z,24.45
2019-05-26T11:12:25.527Z,24.47
2019-05-26T11:13:25.921Z,24.38
2019-05-26T11:14:26.374Z,24.18
2019-05-26T11:15:26.827Z,24.14
2019-05-26T11:16:27.269Z,24.02
2019-05-26T11:17:27.736Z,24.03
2019-05-26T11:18:28.160Z,24.13
2019-05-26T11:19:28.622Z,24.20
2019-05-26T11:20:29.090Z,24.38
2019-05-26T11:21:29.513Z,24.14
2019-05-26T11:22:29.962Z,24.01
2019-05-26T11:23:30.413Z,23.62
2019-05-26T11:24:30.865Z,23.17
2019-05-26T11:25:31.315Z,22.87
2019-05-26T11:26:31.770Z,23.63
2019-05-26T11:27:32.205Z,23.68
2019-05-26T11:28:32.668Z,23.78
2019-05-26T11:29:33.119Z,23.91
2019-05-26T11:30:33.553Z,23.81
2019-05-26T11:31:33.999Z,23.31
2019-05-26T11:32:34.462Z,23.54
2019-05-26T11:33:34.900Z,23.91
2019-05-26T11:34:35.354Z,23.91
2019-05-26T11:35:35.789Z,23.87
2019-05-26T11:36:36.245Z,24.40
2019-05-26T11:37:36.702Z,24.70
2019-05-26T11:38:37.169Z,24.53
2019-05-26T11:39:37.603Z,23.76
2019-05-26T11:40:38.040Z,23.28
2019-05-26T11:41:38.513Z,23.81
2019-05-26T11:42:38.943Z,23.93
2019-05-26T11:43:39.394Z,23.91
2019-05-26T11:44:39.828Z,24.13
2019-05-26T11:45:40.295Z,24.17
2019-05-26T11:46:40.724Z,24.05
2019-05-26T11:47:41.180Z,24.21
2019-05-26T11:48:41.659Z,23.00
2019-05-26T11:49:42.084Z,23.40
2019-05-26T11:50:42.534Z,23.61
2019-05-26T11:51:42.981Z,23.06
2019-05-26T11:52:43.434Z,23.56
2019-05-26T11:53:43.882Z,24.06
2019-05-26T11:54:44.321Z,23.28
2019-05-26T11:55:44.766Z,23.84
2019-05-26T11:56:45.210Z,23.25
2019-05-26T11:57:45.708Z,23.58
2019-05-26T11:58:46.114Z,23.93
2019-05-26T11:59:47.428Z,24.21
2019-05-26T12:00:47.000Z,23.71
2019-05-26T12:01:47.448Z,23.95
2019-05-26T12:02:47.908Z,23.92
2019-05-26T12:03:48.349Z,24.13
2019-05-26T12:04:48.793Z,24.11
2019-05-26T12:05:49.250Z,24.17
2019-05-26T12:06:49.682Z,23.81
2019-05-26T12:07:50.135Z,23.99
2019-05-26T12:08:50.581Z,24.18
2019-05-26T12:09:51.023Z,24.11
2019-05-26T12:10:51.479Z,24.20
2019-05-26T12:11:51.924Z,24.29
2019-05-26T12:12:52.366Z,24.42
2019-05-26T12:13:52.823Z,24.54
2019-05-26T12:14:53.260Z,24.05
2019-05-26T12:15:53.718Z,23.00
2019-05-26T12:16:54.156Z,23.27
2019-05-26T12:17:54.621Z,23.87
2019-05-26T12:18:55.055Z,23.91
2019-05-26T12:19:55.501Z,23.78
2019-05-26T12:20:55.948Z,23.20
2019-05-26T12:21:56.410Z,23.41
2019-05-26T12:22:56.840Z,23.78
2019-05-26T12:23:57.290Z,24.05
2019-05-26T12:24:57.746Z,23.77
2019-05-26T12:25:58.182Z,23.87
2019-05-26T12:26:58.628Z,23.93
2019-05-26T12:27:59.074Z,23.88
2019-05-26T12:28:59.523Z,23.77
2019-05-26T12:29:59.979Z,23.76
2019-05-26T12:31:00.410Z,23.59
2019-05-26T12:32:00.881Z,23.48
2019-05-26T12:33:01.310Z,23.46
2019-05-26T12:34:01.757Z,23.59
2019-05-26T12:35:02.215Z,23.47
2019-05-26T12:36:02.649Z,23.48
2019-05-26T12:37:03.106Z,23.51
2019-05-26T12:38:03.537Z,23.68
2019-05-26T12:39:03.990Z,23.80
2019-05-26T12:40:04.438Z,23.84
2019-05-26T12:41:04.871Z,24.36
2019-05-26T12:42:05.328Z,24.45
2019-05-26T12:43:05.767Z,24.43
2019-05-26T12:44:06.218Z,24.48
2019-05-26T12:45:06.665Z,24.29
2019-05-26T12:46:07.118Z,23.99
2019-05-26T12:47:07.558Z,24.05
2019-05-26T12:48:08.016Z,24.10
2019-05-26T12:49:08.454Z,23.91
2019-05-26T12:50:08.898Z,23.93
2019-05-26T12:51:09.337Z,23.91
2019-05-26T12:52:09.780Z,23.95
2019-05-26T12:53:10.236Z,24.01
2019-05-26T12:54:10.679Z,24.18
2019-05-26T12:55:11.126Z,24.42
2019-05-26T12:56:11.587Z,24.06
2019-05-26T12:57:12.028Z,24.35
2019-05-26T12:58:12.506Z,24.42
2019-05-26T12:59:12.914Z,24.30
2019-05-26T13:00:13.378Z,24.39
2019-05-26T13:01:13.814Z,24.40
2019-05-26T13:02:14.257Z,24.45
2019-05-26T13:03:14.704Z,24.43
2019-05-26T13:04:15.146Z,24.51
2019-05-26T13:05:15.592Z,24.08
2019-05-26T13:06:17.715Z,24.13